首页
METAR-TAF:

METAR-TAF

机场 :

北京, 中华人民共和国

北京首都国际机场

纬度: 39-56N, 经度: 116-17E, 海拔: 55米

当前天气观测

该预报发布于23分钟前的22:00 UTC
风速2节,风向多变
温度 10°C
湿度 87%
气压 1010 hPa
能見度: 4500
轻雾

METAR: ZBAA 252200Z VRB01MPS 4500 BR NSC 10/08 Q1010 NOSIG

时间: 06:23 (22:23 UTC)

预报

该预报发布于7小时和3分钟前的15:20 UTC
预报有效从25日的 18点(UTC)到 26日的 18点(UTC)
风速8节,风向
能见度10公里或以上
1500米以下无云,无积雨云

TAF: ZBAA 251520Z 2518/2618 36004MPS CAVOK TX26/2607Z TN11/2521Z

超过4000个机场的气象观测和天气预报(METAR&TAF报告)。

可查询的气象台以黄色和红色小点在地图上表示。

将鼠标移到小点上方,可查看气象台名称。

然后点击查看天气观测和预报。

如需切换地图:点击带黑十字的绿色按钮放大地图;点击带横线的绿色按钮缩小地图;或者点击绿色箭头查看邻近地区的地图。


METAR-TAF: